• Join FlightAware (Why Join?)
  • Login
  • US Flag 
05:57AM EDT


 

Airport Tracker/Info


-or-


 

Live Flight TrackerFlight Track Log ✈ UAL3776 ✈ 10-Apr-2013 ✈ KMIA - KIAD

Flight Track Log - Related Links

Times and Time Zones

All times are in EDT time to prevent confusion due to time zone crossing. See the UAL3776 flight status page for this flight to view local times or setup timezone preferences in your user account.

Time Position Orientation Groundspeed Altitude Reporting Facility
EDT Latitude Longitude Course Direction KTS MPH feet Rate Location/Type
12:38PM 25.7983 -80.2722 81° East 144 166 800  Level Miami Center
12:39PM 25.8108 -80.1825 81° East 227 261 2,600 2,100 Climbing Miami Center
12:41PM 25.8331 -80.1139 70° East 279 321 5,800 2,700 Climbing Miami Center
12:41PM 25.9103 -80.1253 352° North 291 335 8,100 2,520 Climbing Miami Center
12:42PM 25.9717 -80.1778 322° Northwest 304 350 10,600 2,400 Climbing Miami Center
12:43PM 26.0308 -80.2350 319° Northwest 311 358 13,000 2,400 Climbing Miami Center
12:44PM 26.0942 -80.2992 318° Northwest 311 358 15,400 1,920 Climbing Miami Center
12:45PM 26.1636 -80.3636 320° Northwest 311 358 16,900 1,080 Climbing Miami Center
12:46PM 26.2433 -80.4331 322° Northwest 334 384 17,600 1,140 Climbing Miami Center
12:47PM 26.3342 -80.4800 335° Northwest 361 415 19,200 1,680 Climbing Miami Center
12:48PM 26.4481 -80.5206 342° North 386 444 21,000 1,020 Climbing Miami Center
12:49PM 26.5517 -80.5469 347° North 406 467 21,300 900 Climbing Miami Center
12:50PM 26.6806 -80.5789 348° North 423 487 22,900 1,620 Climbing Miami Center
12:51PM 26.7864 -80.6056 347° North 429 494 24,600 1,080 Climbing Miami Center
12:52PM 26.9003 -80.6347 347° North 429 494 25,100 660 Climbing Miami Center
12:53PM 27.0250 -80.6644 348° North 435 501 26,000 1,080 Climbing Miami Center
12:54PM 27.1453 -80.6942 348° North 440 506 27,300 960 Climbing Miami Center
12:55PM 27.2656 -80.7236 348° North 440 506 28,000 300 Climbing Miami Center
12:56PM 27.3856 -80.7675 342° North 445 512 28,000 60 Level Miami Center
12:57PM 27.5197 -80.8189 341° North 457 526 28,200 660 Climbing Miami Center
12:58PM 27.6442 -80.8444 350° North 457 526 29,400 1,320 Climbing Miami Center
12:59PM 27.7686 -80.8767 347° North 452 520 30,900 1,500 Climbing Miami Center
01:00PM 27.8908 -80.9044 349° North 441 507 32,400 1,020 Climbing Miami Center
01:01PM 28.0050 -80.9344 347° North 441 507 33,000 300 Climbing Miami Center
01:02PM 28.1294 -80.9625 349° North 436 502 33,000  Level Miami Center
01:03PM 28.2517 -80.9931 348° North 442 509 33,000  Level Miami Center
01:06PM 28.5167 -81.0592 348° North 465 535 33,000  Level Jacksonville Center
01:07PM 28.6381 -81.0878 348° North 452 520 33,000  Level Jacksonville Center
01:08PM 28.7617 -81.1186 348° North 452 520 33,000  Level Jacksonville Center
01:09PM 28.8872 -81.1378 352° North 452 520 33,000  Level Jacksonville Center
01:10PM 29.0167 -81.1522 354° North 457 526 33,000  Level Jacksonville Center
01:11PM 29.1444 -81.1714 353° North 462 532 33,000  Level Jacksonville Center
01:12PM 29.2739 -81.1856 355° North 467 537 33,000  Level Jacksonville Center
01:13PM 29.3994 -81.2025 353° North 462 532 33,000  Level Jacksonville Center
01:14PM 29.5269 -81.2194 353° North 462 532 33,000  Level Jacksonville Center
01:15PM 29.6544 -81.2339 354° North 462 532 33,000  Level Jacksonville Center
01:16PM 29.7819 -81.2508 353° North 462 532 33,000  Level Jacksonville Center
01:17PM 29.9094 -81.2656 354° North 462 532 33,000  Level Jacksonville Center
01:18PM 30.0372 -81.2803 354° North 462 532 33,000  Level Jacksonville Center
01:19PM 30.1647 -81.2972 353° North 462 532 33,000  Level Jacksonville Center
01:20PM 30.2900 -81.3122 354° North 462 532 33,000  Level Jacksonville Center
01:21PM 30.4197 -81.3292 354° North 462 532 33,000  Level Jacksonville Center
01:22PM 30.5453 -81.3464 353° North 462 532 33,000  Level Jacksonville Center
01:23PM 30.6728 -81.3614 354° North 462 532 33,000  Level Jacksonville Center
01:24PM 30.8003 -81.3786 353° North 467 537 33,000  Level Jacksonville Center
01:25PM 30.9281 -81.3958 353° North 462 532 33,000  Level Jacksonville Center
01:26PM 31.0556 -81.4133 353° North 462 532 33,000  Level Jacksonville Center
01:27PM 31.1811 -81.4308 353° North 453 521 33,000  Level Jacksonville Center
01:28PM 31.3144 -81.4239 North 465 535 33,000  Level Jacksonville Center
01:29PM 31.4228 -81.3906 15° North 448 516 33,000  Level Jacksonville Center
01:30PM 31.5642 -81.3539 12° North 464 534 33,000  Level Jacksonville Center
01:31PM 31.6911 -81.3203 13° North 464 534 33,000  Level Jacksonville Center
01:32PM 31.8036 -81.2914 12° North 464 534 33,000  Level Jacksonville Center
01:33PM 31.9347 -81.2572 12° North 470 541 33,000  Level Jacksonville Center
01:34PM 32.0594 -81.2231 13° North 465 535 33,000  Level Jacksonville Center
01:35PM 32.1842 -81.1742 18° North 465 535 33,000  Level Jacksonville Center
01:36PM 32.2978 -81.0911 32° Northeast 465 535 33,000  Level Jacksonville Center
01:37PM 32.4094 -81.0125 31° Northeast 470 541 33,000  Level Jacksonville Center
01:38PM 32.5228 -80.9289 32° Northeast 470 541 33,000  Level Jacksonville Center
01:39PM 32.6342 -80.8450 32° Northeast 469 540 33,000  Level Jacksonville Center
01:40PM 32.7478 -80.7658 30° Northeast 469 540 33,000  Level Jacksonville Center
01:41PM 32.8611 -80.6817 32° Northeast 469 540 33,000  Level Jacksonville Center
01:42PM 32.9744 -80.5997 31° Northeast 469 540 33,000  Level Jacksonville Center
01:43PM 33.0878 -80.5200 31° Northeast 469 540 33,000  Level Jacksonville Center
01:44PM 33.2133 -80.4272 32° Northeast 469 540 33,000  Level Jacksonville Center
01:45PM 33.3267 -80.3444 31° Northeast 469 540 33,000  Level Jacksonville Center
01:46PM 33.4375 -80.2592 33° Northeast 469 540 33,000  Level Jacksonville Center
01:47PM 33.5525 -80.1736 32° Northeast 469 540 33,000  Level Jacksonville Center
01:48PM 33.6633 -80.0903 32° Northeast 469 540 33,000  Level Jacksonville Center
01:49PM 33.7764 -80.0067 32° Northeast 469 540 33,000  Level Jacksonville Center
01:50PM 33.8869 -79.9206 33° Northeast 469 540 33,000  Level Jacksonville Center
01:51PM 34.0017 -79.8339 32° Northeast 469 540 33,000  Level Jacksonville Center
01:52PM 34.1122 -79.7500 32° Northeast 469 540 33,000  Level Jacksonville Center
01:53PM 34.2269 -79.6653 31° Northeast 469 540 33,000  Level Jacksonville Center
01:54PM 34.3297 -79.6061 25° Northeast 454 522 33,000  Level Jacksonville Center
01:54PM 34.3869 -79.5781 22° Northeast 472 543 33,000  Level Washington Center
01:55PM 34.5081 -79.5133 24° Northeast 479 551 33,000  Level Washington Center
01:56PM 34.6292 -79.4486 24° Northeast 479 551 33,000  Level Washington Center
01:57PM 34.7481 -79.3861 23° Northeast 467 537 33,000  Level Washington Center
01:58PM 34.8689 -79.3208 24° Northeast 467 537 33,000  Level Washington Center
01:59PM 35.0006 -79.2508 24° Northeast 467 537 33,000  Level Washington Center
02:00PM 35.1108 -79.1922 23° Northeast 467 537 33,000 -120 Level Washington Center
02:01PM 35.2317 -79.1239 25° Northeast 467 537 32,800 -300 Descending Washington Center
02:02PM 35.3569 -79.0581 23° Northeast 467 537 32,400 -600 Descending Washington Center
02:03PM 35.4819 -78.9897 24° Northeast 472 543 31,600 -840 Descending Washington Center
02:04PM 35.6092 -78.9183 25° Northeast 485 558 30,800 -840 Descending Washington Center
02:05PM 35.7339 -78.8519 23° Northeast 491 565 30,000 -900 Descending Washington Center
02:06PM 35.8589 -78.7828 24° Northeast 486 559 29,100 -840 Descending Washington Center
02:07PM 35.9903 -78.7086 25° Northeast 481 554 28,400 -840 Descending Washington Center
02:08PM 36.1111 -78.6414 24° Northeast 476 548 27,500 -720 Descending Washington Center
02:09PM 36.2294 -78.5739 25° Northeast 471 542 27,000 -300 Descending Washington Center
02:10PM 36.3500 -78.5061 24° Northeast 466 536 27,000  Level Washington Center
02:11PM 36.4706 -78.4383 24° Northeast 466 536 27,000  Level Washington Center
02:12PM 36.5892 -78.3728 24° Northeast 466 536 27,000  Level Washington Center
02:13PM 36.6969 -78.3094 25° Northeast 466 536 27,000  Level Washington Center
02:14PM 36.8175 -78.2408 24° Northeast 466 536 27,000 -240 Level Washington Center
02:15PM 36.9358 -78.1722 25° Northeast 466 536 26,600 -540 Descending Washington Center
02:16PM 37.0519 -78.1033 25° Northeast 466 536 26,000 -780 Descending Washington Center
02:17PM 37.1722 -78.0367 24° Northeast 466 536 25,100 -1,020 Descending Washington Center
02:18PM 37.2947 -77.9650 25° Northeast 466 536 24,000 -600 Descending Washington Center
02:19PM 37.4128 -77.8953 25° Northeast 466 536 24,000 -1,080 Level Washington Center
02:20PM 37.5308 -77.8283 24° Northeast 466 536 21,900 -2,160 Descending Washington Center
02:21PM 37.6447 -77.7608 25° Northeast 466 536 19,700 -2,220 Descending Washington Center
02:22PM 37.7544 -77.6956 25° Northeast 448 516 17,500 -2,340 Descending Washington Center
02:23PM 37.8597 -77.6356 24° Northeast 423 487 15,100 -2,400 Descending Washington Center
02:24PM 37.9628 -77.5750 25° Northeast 412 474 12,700 -2,400 Descending Washington Center
02:25PM 38.0639 -77.5169 24° Northeast 399 459 10,300 -1,380 Descending Washington Center
02:26PM 38.1544 -77.4586 27° Northeast 361 415 10,000 -180 Descending Washington Center
02:27PM 38.2261 -77.4181 24° Northeast 308 354 10,000 -600 Level Washington Center
02:28PM 38.3019 -77.3722 25° Northeast 298 343 8,900 -1,260 Descending Washington Center
02:29PM 38.3814 -77.3558 North 298 343 7,500 -1,320 Descending Washington Center
02:30PM 38.4583 -77.3575 359° North 280 322 6,300 -1,260 Descending Washington Center
02:31PM 38.5375 -77.3619 357° North 280 322 5,000 -900 Descending Washington Center
02:32PM 38.6147 -77.3611 360° North 275 316 4,500 -540 Descending Washington Center
02:33PM 38.6919 -77.3606 360° North 270 311 4,000 -300 Descending Washington Center
02:34PM 38.7753 -77.3572 North 270 311 4,000 11,460 Level Washington Center
02:35PM 38.8483 -77.3508 North 270 311 27,000  Climbing Washington Center
02:36PM 38.9500 -77.3500 360° North 260 299 4,000 -10,980 Descending Potomac TRACON
02:37PM 39.0000 -77.3500 360° North 219 252 2,900 -1,020 Descending Potomac TRACON
02:38PM 39.0500 -77.3667 345° North 212 244 2,000 -480 Descending Potomac TRACON
02:39PM 39.0333 -77.4167 247° West 188 216 2,000 -420 Level Potomac TRACON
02:40PM 39.0000 -77.4333 201° Southwest 142 163 1,200 -840 Descending Potomac TRACON
02:42PM 38.9474 -77.4599 195° South  Level Estimated
02:49PM 38.9474 -77.4599 195° South  Level Estimated
02:50PM 38.9474 -77.4599 195° South  Level Estimated
02:51PM 38.9474 -77.4599 195° South  Level Estimated